sensor_id;sensor_type;location;lat;lon;timestamp;P1;durP1;ratioP1;P2;durP2;ratioP2
9413;SDS011;4746;35.664;139.738;2023-11-21T00:00:45;5.00;;;3.00;;
9413;SDS011;4746;35.664;139.738;2023-11-21T00:03:12;3.23;;;2.70;;
9413;SDS011;4746;35.664;139.738;2023-11-21T00:05:44;4.70;;;2.53;;
9413;SDS011;4746;35.664;139.738;2023-11-21T00:08:12;4.13;;;2.70;;
9413;SDS011;4746;35.664;139.738;2023-11-21T00:10:39;3.70;;;2.73;;
9413;SDS011;4746;35.664;139.738;2023-11-21T00:13:10;6.03;;;2.93;;
9413;SDS011;4746;35.664;139.738;2023-11-21T00:15:37;5.43;;;3.03;;
9413;SDS011;4746;35.664;139.738;2023-11-21T00:18:06;4.23;;;2.70;;
9413;SDS011;4746;35.664;139.738;2023-11-21T00:20:34;6.07;;;3.00;;
9413;SDS011;4746;35.664;139.738;2023-11-21T00:23:01;4.37;;;2.77;;
9413;SDS011;4746;35.664;139.738;2023-11-21T00:25:29;3.00;;;2.70;;
9413;SDS011;4746;35.664;139.738;2023-11-21T00:27:58;4.70;;;2.83;;
9413;SDS011;4746;35.664;139.738;2023-11-21T00:30:27;4.93;;;3.10;;
9413;SDS011;4746;35.664;139.738;2023-11-21T00:32:56;4.80;;;3.00;;
9413;SDS011;4746;35.664;139.738;2023-11-21T00:35:24;6.37;;;3.30;;
9413;SDS011;4746;35.664;139.738;2023-11-21T00:37:52;5.87;;;3.13;;
9413;SDS011;4746;35.664;139.738;2023-11-21T00:40:19;4.80;;;2.93;;
9413;SDS011;4746;35.664;139.738;2023-11-21T00:42:47;4.80;;;3.80;;
9413;SDS011;4746;35.664;139.738;2023-11-21T00:45:15;3.80;;;3.00;;
9413;SDS011;4746;35.664;139.738;2023-11-21T00:47:42;6.20;;;3.10;;
9413;SDS011;4746;35.664;139.738;2023-11-21T00:50:10;9.80;;;3.33;;
9413;SDS011;4746;35.664;139.738;2023-11-21T00:52:38;4.07;;;2.73;;
9413;SDS011;4746;35.664;139.738;2023-11-21T00:55:06;4.77;;;3.03;;
9413;SDS011;4746;35.664;139.738;2023-11-21T00:57:35;7.60;;;2.53;;
9413;SDS011;4746;35.664;139.738;2023-11-21T01:00:02;5.07;;;3.33;;
9413;SDS011;4746;35.664;139.738;2023-11-21T01:02:43;6.50;;;2.77;;
9413;SDS011;4746;35.664;139.738;2023-11-21T01:05:11;6.30;;;3.20;;
9413;SDS011;4746;35.664;139.738;2023-11-21T01:07:39;5.07;;;2.87;;
9413;SDS011;4746;35.664;139.738;2023-11-21T01:10:07;7.00;;;3.10;;
9413;SDS011;4746;35.664;139.738;2023-11-21T01:12:37;6.43;;;3.27;;
9413;SDS011;4746;35.664;139.738;2023-11-21T01:15:07;3.67;;;2.83;;
9413;SDS011;4746;35.664;139.738;2023-11-21T01:17:37;3.70;;;2.73;;
9413;SDS011;4746;35.664;139.738;2023-11-21T01:20:06;3.00;;;2.43;;
9413;SDS011;4746;35.664;139.738;2023-11-21T01:22:38;3.10;;;2.80;;
9413;SDS011;4746;35.664;139.738;2023-11-21T01:25:06;7.80;;;3.20;;
9413;SDS011;4746;35.664;139.738;2023-11-21T01:27:34;5.30;;;2.90;;
9413;SDS011;4746;35.664;139.738;2023-11-21T01:30:02;5.40;;;2.90;;
9413;SDS011;4746;35.664;139.738;2023-11-21T01:32:33;6.07;;;3.00;;
9413;SDS011;4746;35.664;139.738;2023-11-21T01:35:00;9.70;;;3.20;;
9413;SDS011;4746;35.664;139.738;2023-11-21T01:37:28;5.13;;;2.93;;
9413;SDS011;4746;35.664;139.738;2023-11-21T01:39:55;6.37;;;3.40;;
9413;SDS011;4746;35.664;139.738;2023-11-21T01:42:24;8.33;;;3.40;;
9413;SDS011;4746;35.664;139.738;2023-11-21T01:44:54;7.37;;;3.60;;
9413;SDS011;4746;35.664;139.738;2023-11-21T01:47:22;5.97;;;3.43;;
9413;SDS011;4746;35.664;139.738;2023-11-21T01:49:50;3.30;;;3.00;;
9413;SDS011;4746;35.664;139.738;2023-11-21T01:52:18;5.77;;;2.90;;
9413;SDS011;4746;35.664;139.738;2023-11-21T01:54:46;4.70;;;3.23;;
9413;SDS011;4746;35.664;139.738;2023-11-21T01:57:14;7.60;;;3.00;;
9413;SDS011;4746;35.664;139.738;2023-11-21T01:59:41;6.20;;;3.07;;
9413;SDS011;4746;35.664;139.738;2023-11-21T02:02:13;6.00;;;3.43;;
9413;SDS011;4746;35.664;139.738;2023-11-21T02:04:41;8.27;;;3.63;;
9413;SDS011;4746;35.664;139.738;2023-11-21T02:07:08;6.33;;;3.13;;
9413;SDS011;4746;35.664;139.738;2023-11-21T02:09:36;6.10;;;3.53;;
9413;SDS011;4746;35.664;139.738;2023-11-21T02:12:07;5.70;;;3.47;;
9413;SDS011;4746;35.664;139.738;2023-11-21T02:14:38;7.07;;;3.03;;
9413;SDS011;4746;35.664;139.738;2023-11-21T02:17:05;9.50;;;3.57;;
9413;SDS011;4746;35.664;139.738;2023-11-21T02:19:33;8.27;;;3.57;;
9413;SDS011;4746;35.664;139.738;2023-11-21T02:22:01;9.27;;;3.57;;
9413;SDS011;4746;35.664;139.738;2023-11-21T02:24:31;4.80;;;2.90;;
9413;SDS011;4746;35.664;139.738;2023-11-21T02:26:59;4.60;;;3.27;;
9413;SDS011;4746;35.664;139.738;2023-11-21T02:29:26;5.87;;;2.90;;
9413;SDS011;4746;35.664;139.738;2023-11-21T02:31:55;6.87;;;3.73;;
9413;SDS011;4746;35.664;139.738;2023-11-21T02:34:22;5.00;;;3.30;;
9413;SDS011;4746;35.664;139.738;2023-11-21T02:36:50;4.37;;;2.97;;
9413;SDS011;4746;35.664;139.738;2023-11-21T02:39:18;5.63;;;3.37;;
9413;SDS011;4746;35.664;139.738;2023-11-21T02:41:49;5.33;;;3.63;;
9413;SDS011;4746;35.664;139.738;2023-11-21T02:44:17;5.60;;;3.60;;
9413;SDS011;4746;35.664;139.738;2023-11-21T02:46:44;6.10;;;3.30;;
9413;SDS011;4746;35.664;139.738;2023-11-21T02:49:14;3.93;;;2.87;;
9413;SDS011;4746;35.664;139.738;2023-11-21T02:51:41;4.90;;;3.17;;
9413;SDS011;4746;35.664;139.738;2023-11-21T02:54:09;8.63;;;4.07;;
9413;SDS011;4746;35.664;139.738;2023-11-21T02:56:38;4.90;;;3.60;;
9413;SDS011;4746;35.664;139.738;2023-11-21T02:59:05;7.33;;;3.47;;
9413;SDS011;4746;35.664;139.738;2023-11-21T03:01:33;7.47;;;3.10;;
9413;SDS011;4746;35.664;139.738;2023-11-21T03:04:00;6.00;;;3.10;;
9413;SDS011;4746;35.664;139.738;2023-11-21T03:06:30;6.43;;;3.40;;
9413;SDS011;4746;35.664;139.738;2023-11-21T03:08:58;6.07;;;3.40;;
9413;SDS011;4746;35.664;139.738;2023-11-21T03:11:25;5.17;;;3.27;;
9413;SDS011;4746;35.664;139.738;2023-11-21T03:13:53;6.40;;;3.30;;
9413;SDS011;4746;35.664;139.738;2023-11-21T03:16:22;6.47;;;3.90;;
9413;SDS011;4746;35.664;139.738;2023-11-21T03:18:52;5.93;;;3.77;;
9413;SDS011;4746;35.664;139.738;2023-11-21T03:21:20;6.30;;;4.33;;
9413;SDS011;4746;35.664;139.738;2023-11-21T03:23:50;9.23;;;3.90;;
9413;SDS011;4746;35.664;139.738;2023-11-21T03:26:18;5.68;;;3.90;;
9413;SDS011;4746;35.664;139.738;2023-11-21T03:28:45;4.97;;;3.78;;
9413;SDS011;4746;35.664;139.738;2023-11-21T03:31:13;6.53;;;4.13;;
9413;SDS011;4746;35.664;139.738;2023-11-21T03:33:43;5.43;;;4.15;;
9413;SDS011;4746;35.664;139.738;2023-11-21T03:36:14;6.35;;;4.28;;
9413;SDS011;4746;35.664;139.738;2023-11-21T03:38:41;5.45;;;3.90;;
9413;SDS011;4746;35.664;139.738;2023-11-21T03:41:09;6.07;;;4.15;;
9413;SDS011;4746;35.664;139.738;2023-11-21T03:43:36;8.50;;;4.15;;
9413;SDS011;4746;35.664;139.738;2023-11-21T03:46:04;9.20;;;4.22;;
9413;SDS011;4746;35.664;139.738;2023-11-21T03:48:32;7.25;;;4.45;;
9413;SDS011;4746;35.664;139.738;2023-11-21T03:51:00;7.45;;;4.53;;
9413;SDS011;4746;35.664;139.738;2023-11-21T03:53:28;7.72;;;4.05;;
9413;SDS011;4746;35.664;139.738;2023-11-21T03:55:57;7.20;;;4.55;;
9413;SDS011;4746;35.664;139.738;2023-11-21T03:58:24;7.30;;;5.00;;
9413;SDS011;4746;35.664;139.738;2023-11-21T04:00:52;6.30;;;4.20;;
9413;SDS011;4746;35.664;139.738;2023-11-21T04:03:19;7.28;;;3.90;;
9413;SDS011;4746;35.664;139.738;2023-11-21T04:05:47;6.25;;;4.38;;
9413;SDS011;4746;35.664;139.738;2023-11-21T04:08:15;5.50;;;3.75;;
9413;SDS011;4746;35.664;139.738;2023-11-21T04:10:42;7.80;;;4.13;;
9413;SDS011;4746;35.664;139.738;2023-11-21T04:13:10;7.53;;;3.92;;
9413;SDS011;4746;35.664;139.738;2023-11-21T04:15:39;8.18;;;4.40;;
9413;SDS011;4746;35.664;139.738;2023-11-21T04:18:09;6.75;;;4.45;;
9413;SDS011;4746;35.664;139.738;2023-11-21T04:20:37;7.35;;;4.68;;
9413;SDS011;4746;35.664;139.738;2023-11-21T04:23:05;6.57;;;4.22;;
9413;SDS011;4746;35.664;139.738;2023-11-21T04:25:35;8.55;;;4.63;;
9413;SDS011;4746;35.664;139.738;2023-11-21T04:28:03;8.20;;;4.70;;
9413;SDS011;4746;35.664;139.738;2023-11-21T04:30:30;9.73;;;4.68;;
9413;SDS011;4746;35.664;139.738;2023-11-21T04:32:58;10.88;;;5.20;;
9413;SDS011;4746;35.664;139.738;2023-11-21T04:35:28;9.02;;;4.50;;
9413;SDS011;4746;35.664;139.738;2023-11-21T04:37:55;10.48;;;6.05;;
9413;SDS011;4746;35.664;139.738;2023-11-21T04:40:25;7.15;;;4.40;;
9413;SDS011;4746;35.664;139.738;2023-11-21T04:42:53;9.77;;;5.32;;
9413;SDS011;4746;35.664;139.738;2023-11-21T04:45:22;7.40;;;4.30;;
9413;SDS011;4746;35.664;139.738;2023-11-21T04:47:50;7.50;;;4.57;;
9413;SDS011;4746;35.664;139.738;2023-11-21T04:50:18;10.60;;;5.78;;
9413;SDS011;4746;35.664;139.738;2023-11-21T04:52:45;11.65;;;6.85;;
9413;SDS011;4746;35.664;139.738;2023-11-21T04:55:13;6.63;;;4.80;;
9413;SDS011;4746;35.664;139.738;2023-11-21T04:57:40;6.80;;;4.45;;
9413;SDS011;4746;35.664;139.738;2023-11-21T05:00:11;9.13;;;5.32;;
9413;SDS011;4746;35.664;139.738;2023-11-21T05:02:41;8.63;;;5.07;;
9413;SDS011;4746;35.664;139.738;2023-11-21T05:05:09;6.85;;;4.70;;
9413;SDS011;4746;35.664;139.738;2023-11-21T05:07:38;8.98;;;4.97;;
9413;SDS011;4746;35.664;139.738;2023-11-21T05:10:07;9.27;;;5.90;;
9413;SDS011;4746;35.664;139.738;2023-11-21T05:12:37;6.90;;;5.20;;
9413;SDS011;4746;35.664;139.738;2023-11-21T05:15:08;8.73;;;5.43;;
9413;SDS011;4746;35.664;139.738;2023-11-21T05:17:40;10.82;;;7.07;;
9413;SDS011;4746;35.664;139.738;2023-11-21T05:20:08;9.18;;;6.68;;
9413;SDS011;4746;35.664;139.738;2023-11-21T05:22:43;9.30;;;6.80;;
9413;SDS011;4746;35.664;139.738;2023-11-21T05:25:11;9.15;;;7.03;;
9413;SDS011;4746;35.664;139.738;2023-11-21T05:27:38;14.60;;;7.65;;
9413;SDS011;4746;35.664;139.738;2023-11-21T05:30:06;14.68;;;9.63;;
9413;SDS011;4746;35.664;139.738;2023-11-21T05:32:41;14.35;;;8.13;;
9413;SDS011;4746;35.664;139.738;2023-11-21T05:35:12;13.15;;;8.40;;
9413;SDS011;4746;35.664;139.738;2023-11-21T05:37:41;15.52;;;8.55;;
9413;SDS011;4746;35.664;139.738;2023-11-21T05:40:10;11.68;;;8.15;;
9413;SDS011;4746;35.664;139.738;2023-11-21T05:42:43;10.00;;;8.00;;
9413;SDS011;4746;35.664;139.738;2023-11-21T05:45:11;11.55;;;7.70;;
9413;SDS011;4746;35.664;139.738;2023-11-21T05:47:41;10.57;;;8.18;;
9413;SDS011;4746;35.664;139.738;2023-11-21T05:50:12;8.50;;;6.65;;
9413;SDS011;4746;35.664;139.738;2023-11-21T05:52:42;13.30;;;7.57;;
9413;SDS011;4746;35.664;139.738;2023-11-21T05:55:11;11.63;;;7.63;;
9413;SDS011;4746;35.664;139.738;2023-11-21T05:57:40;10.77;;;6.45;;
9413;SDS011;4746;35.664;139.738;2023-11-21T06:00:11;11.48;;;6.45;;
9413;SDS011;4746;35.664;139.738;2023-11-21T06:02:51;8.27;;;6.70;;
9413;SDS011;4746;35.664;139.738;2023-11-21T06:05:21;11.20;;;6.53;;
9413;SDS011;4746;35.664;139.738;2023-11-21T06:07:51;8.15;;;5.40;;
9413;SDS011;4746;35.664;139.738;2023-11-21T06:10:24;3.78;;;3.08;;
9413;SDS011;4746;35.664;139.738;2023-11-21T06:12:53;5.05;;;4.03;;
9413;SDS011;4746;35.664;139.738;2023-11-21T06:15:21;5.15;;;2.38;;
9413;SDS011;4746;35.664;139.738;2023-11-21T06:17:49;5.40;;;2.85;;
9413;SDS011;4746;35.664;139.738;2023-11-21T06:20:18;4.93;;;2.50;;
9413;SDS011;4746;35.664;139.738;2023-11-21T06:22:49;3.67;;;2.00;;
9413;SDS011;4746;35.664;139.738;2023-11-21T06:25:17;4.68;;;2.13;;
9413;SDS011;4746;35.664;139.738;2023-11-21T06:27:46;5.20;;;2.28;;
9413;SDS011;4746;35.664;139.738;2023-11-21T06:30:14;4.82;;;2.25;;
9413;SDS011;4746;35.664;139.738;2023-11-21T06:32:45;6.03;;;2.42;;
9413;SDS011;4746;35.664;139.738;2023-11-21T06:35:13;3.95;;;2.28;;
9413;SDS011;4746;35.664;139.738;2023-11-21T06:37:40;2.63;;;2.05;;
9413;SDS011;4746;35.664;139.738;2023-11-21T06:40:13;4.43;;;2.10;;
9413;SDS011;4746;35.664;139.738;2023-11-21T06:42:41;4.30;;;2.15;;
9413;SDS011;4746;35.664;139.738;2023-11-21T06:45:10;3.38;;;1.85;;
9413;SDS011;4746;35.664;139.738;2023-11-21T06:47:38;4.82;;;1.90;;
9413;SDS011;4746;35.664;139.738;2023-11-21T06:50:05;4.00;;;1.88;;
9413;SDS011;4746;35.664;139.738;2023-11-21T06:52:34;3.88;;;2.25;;
9413;SDS011;4746;35.664;139.738;2023-11-21T06:55:03;2.75;;;1.80;;
9413;SDS011;4746;35.664;139.738;2023-11-21T06:57:33;5.50;;;2.45;;
9413;SDS011;4746;35.664;139.738;2023-11-21T07:00:01;8.77;;;2.30;;
9413;SDS011;4746;35.664;139.738;2023-11-21T07:02:29;6.18;;;2.63;;
9413;SDS011;4746;35.664;139.738;2023-11-21T07:04:59;4.38;;;2.22;;
9413;SDS011;4746;35.664;139.738;2023-11-21T07:07:28;6.53;;;2.58;;
9413;SDS011;4746;35.664;139.738;2023-11-21T07:09:56;5.72;;;2.40;;
9413;SDS011;4746;35.664;139.738;2023-11-21T07:12:29;3.72;;;2.55;;
9413;SDS011;4746;35.664;139.738;2023-11-21T07:14:57;4.13;;;2.40;;
9413;SDS011;4746;35.664;139.738;2023-11-21T07:17:25;7.43;;;2.88;;
9413;SDS011;4746;35.664;139.738;2023-11-21T07:19:52;5.32;;;2.80;;
9413;SDS011;4746;35.664;139.738;2023-11-21T07:22:20;4.38;;;2.42;;
9413;SDS011;4746;35.664;139.738;2023-11-21T07:24:49;4.32;;;2.63;;
9413;SDS011;4746;35.664;139.738;2023-11-21T07:27:17;4.70;;;2.60;;
9413;SDS011;4746;35.664;139.738;2023-11-21T07:29:45;4.85;;;2.97;;
9413;SDS011;4746;35.664;139.738;2023-11-21T07:32:14;5.40;;;2.90;;
9413;SDS011;4746;35.664;139.738;2023-11-21T07:34:41;6.80;;;2.73;;
9413;SDS011;4746;35.664;139.738;2023-11-21T07:37:10;3.97;;;2.23;;
9413;SDS011;4746;35.664;139.738;2023-11-21T07:39:38;6.90;;;3.10;;
9413;SDS011;4746;35.664;139.738;2023-11-21T07:42:07;3.97;;;2.73;;
9413;SDS011;4746;35.664;139.738;2023-11-21T07:44:38;4.97;;;3.10;;
9413;SDS011;4746;35.664;139.738;2023-11-21T07:47:12;4.97;;;3.10;;
9413;SDS011;4746;35.664;139.738;2023-11-21T07:49:40;6.30;;;2.90;;
9413;SDS011;4746;35.664;139.738;2023-11-21T07:52:09;4.17;;;2.60;;
9413;SDS011;4746;35.664;139.738;2023-11-21T07:54:37;4.53;;;2.80;;
9413;SDS011;4746;35.664;139.738;2023-11-21T07:57:05;6.87;;;3.63;;
9413;SDS011;4746;35.664;139.738;2023-11-21T07:59:33;7.60;;;3.03;;
9413;SDS011;4746;35.664;139.738;2023-11-21T08:02:00;4.70;;;2.90;;
9413;SDS011;4746;35.664;139.738;2023-11-21T08:04:28;7.23;;;3.17;;
9413;SDS011;4746;35.664;139.738;2023-11-21T08:06:57;9.57;;;3.57;;
9413;SDS011;4746;35.664;139.738;2023-11-21T08:09:25;5.93;;;3.13;;
9413;SDS011;4746;35.664;139.738;2023-11-21T08:11:52;6.10;;;3.27;;
9413;SDS011;4746;35.664;139.738;2023-11-21T08:14:20;6.53;;;3.53;;
9413;SDS011;4746;35.664;139.738;2023-11-21T08:16:53;6.07;;;3.90;;
9413;SDS011;4746;35.664;139.738;2023-11-21T08:19:25;6.00;;;4.00;;
9413;SDS011;4746;35.664;139.738;2023-11-21T08:21:52;6.87;;;3.70;;
9413;SDS011;4746;35.664;139.738;2023-11-21T08:24:20;8.97;;;4.27;;
9413;SDS011;4746;35.664;139.738;2023-11-21T08:26:48;6.73;;;4.40;;
9413;SDS011;4746;35.664;139.738;2023-11-21T08:29:17;7.40;;;3.73;;
9413;SDS011;4746;35.664;139.738;2023-11-21T08:31:45;5.57;;;3.40;;
9413;SDS011;4746;35.664;139.738;2023-11-21T08:34:12;6.23;;;3.77;;
9413;SDS011;4746;35.664;139.738;2023-11-21T08:36:43;5.07;;;3.33;;
9413;SDS011;4746;35.664;139.738;2023-11-21T08:39:11;7.33;;;3.60;;
9413;SDS011;4746;35.664;139.738;2023-11-21T08:41:44;5.10;;;3.23;;
9413;SDS011;4746;35.664;139.738;2023-11-21T08:44:11;7.77;;;3.30;;
9413;SDS011;4746;35.664;139.738;2023-11-21T08:46:39;4.80;;;3.10;;
9413;SDS011;4746;35.664;139.738;2023-11-21T08:49:07;9.73;;;4.20;;
9413;SDS011;4746;35.664;139.738;2023-11-21T08:51:34;6.93;;;3.50;;
9413;SDS011;4746;35.664;139.738;2023-11-21T08:54:02;7.37;;;3.80;;
9413;SDS011;4746;35.664;139.738;2023-11-21T08:56:33;4.83;;;3.40;;
9413;SDS011;4746;35.664;139.738;2023-11-21T08:59:01;5.77;;;3.30;;
9413;SDS011;4746;35.664;139.738;2023-11-21T09:01:29;4.80;;;2.97;;
9413;SDS011;4746;35.664;139.738;2023-11-21T09:03:58;6.87;;;3.70;;
9413;SDS011;4746;35.664;139.738;2023-11-21T09:06:25;6.00;;;3.30;;
9413;SDS011;4746;35.664;139.738;2023-11-21T09:08:53;6.17;;;3.00;;
9413;SDS011;4746;35.664;139.738;2023-11-21T09:11:23;5.37;;;3.43;;
9413;SDS011;4746;35.664;139.738;2023-11-21T09:13:56;5.57;;;3.17;;
9413;SDS011;4746;35.664;139.738;2023-11-21T09:16:25;6.50;;;4.30;;
9413;SDS011;4746;35.664;139.738;2023-11-21T09:18:53;9.03;;;3.13;;
9413;SDS011;4746;35.664;139.738;2023-11-21T09:21:20;6.00;;;4.60;;
9413;SDS011;4746;35.664;139.738;2023-11-21T09:23:49;7.37;;;4.10;;
9413;SDS011;4746;35.664;139.738;2023-11-21T09:26:16;6.57;;;4.70;;
9413;SDS011;4746;35.664;139.738;2023-11-21T09:28:44;10.10;;;6.20;;
9413;SDS011;4746;35.664;139.738;2023-11-21T09:31:14;8.53;;;5.80;;
9413;SDS011;4746;35.664;139.738;2023-11-21T09:33:42;6.20;;;3.77;;
9413;SDS011;4746;35.664;139.738;2023-11-21T09:36:13;6.67;;;4.80;;
9413;SDS011;4746;35.664;139.738;2023-11-21T09:38:41;7.27;;;4.30;;
9413;SDS011;4746;35.664;139.738;2023-11-21T09:41:15;7.63;;;4.20;;
9413;SDS011;4746;35.664;139.738;2023-11-21T09:44:00;6.60;;;3.70;;
9413;SDS011;4746;35.664;139.738;2023-11-21T09:46:36;5.67;;;3.23;;
9413;SDS011;4746;35.664;139.738;2023-11-21T09:49:11;6.23;;;4.00;;
9413;SDS011;4746;35.664;139.738;2023-11-21T09:51:44;4.00;;;3.60;;
9413;SDS011;4746;35.664;139.738;2023-11-21T09:54:15;8.67;;;4.57;;
9413;SDS011;4746;35.664;139.738;2023-11-21T09:56:45;8.30;;;4.00;;
9413;SDS011;4746;35.664;139.738;2023-11-21T09:59:13;5.10;;;3.90;;
9413;SDS011;4746;35.664;139.738;2023-11-21T10:01:42;6.47;;;4.30;;
9413;SDS011;4746;35.664;139.738;2023-11-21T10:04:12;6.97;;;4.10;;
9413;SDS011;4746;35.664;139.738;2023-11-21T10:06:41;7.03;;;4.20;;
9413;SDS011;4746;35.664;139.738;2023-11-21T10:09:13;7.13;;;3.90;;
9413;SDS011;4746;35.664;139.738;2023-11-21T10:11:42;7.10;;;3.70;;
9413;SDS011;4746;35.664;139.738;2023-11-21T10:14:11;5.60;;;4.07;;
9413;SDS011;4746;35.664;139.738;2023-11-21T10:16:40;7.50;;;3.87;;
9413;SDS011;4746;35.664;139.738;2023-11-21T10:19:12;9.83;;;4.90;;
9413;SDS011;4746;35.664;139.738;2023-11-21T10:21:42;8.37;;;4.73;;
9413;SDS011;4746;35.664;139.738;2023-11-21T10:24:10;8.83;;;5.33;;
9413;SDS011;4746;35.664;139.738;2023-11-21T10:26:38;9.70;;;5.60;;
9413;SDS011;4746;35.664;139.738;2023-11-21T10:29:07;11.23;;;5.40;;
9413;SDS011;4746;35.664;139.738;2023-11-21T10:31:37;9.30;;;6.30;;
9413;SDS011;4746;35.664;139.738;2023-11-21T10:34:14;9.03;;;6.53;;
9413;SDS011;4746;35.664;139.738;2023-11-21T10:36:45;11.80;;;7.60;;
9413;SDS011;4746;35.664;139.738;2023-11-21T10:39:17;12.50;;;7.27;;
9413;SDS011;4746;35.664;139.738;2023-11-21T10:41:49;12.63;;;8.50;;
9413;SDS011;4746;35.664;139.738;2023-11-21T10:44:17;10.27;;;8.03;;
9413;SDS011;4746;35.664;139.738;2023-11-21T10:46:54;12.17;;;9.30;;
9413;SDS011;4746;35.664;139.738;2023-11-21T10:49:24;11.87;;;9.93;;
9413;SDS011;4746;35.664;139.738;2023-11-21T10:51:56;13.23;;;10.27;;
9413;SDS011;4746;35.664;139.738;2023-11-21T10:54:24;11.83;;;9.17;;
9413;SDS011;4746;35.664;139.738;2023-11-21T10:56:59;13.60;;;10.27;;
9413;SDS011;4746;35.664;139.738;2023-11-21T10:59:30;13.63;;;10.13;;
9413;SDS011;4746;35.664;139.738;2023-11-21T11:01:58;16.60;;;10.70;;
9413;SDS011;4746;35.664;139.738;2023-11-21T11:04:29;15.20;;;11.03;;
9413;SDS011;4746;35.664;139.738;2023-11-21T11:06:57;14.30;;;11.57;;
9413;SDS011;4746;35.664;139.738;2023-11-21T11:09:35;15.23;;;11.83;;
9413;SDS011;4746;35.664;139.738;2023-11-21T11:12:02;14.63;;;11.33;;
9413;SDS011;4746;35.664;139.738;2023-11-21T11:14:32;21.33;;;11.87;;
9413;SDS011;4746;35.664;139.738;2023-11-21T11:17:00;15.07;;;12.17;;
9413;SDS011;4746;35.664;139.738;2023-11-21T11:19:31;13.90;;;11.40;;
9413;SDS011;4746;35.664;139.738;2023-11-21T11:27:35;17.17;;;12.27;;
9413;SDS011;4746;35.664;139.738;2023-11-21T11:36:40;17.73;;;11.63;;
9413;SDS011;4746;35.664;139.738;2023-11-21T11:39:33;14.53;;;11.30;;
9413;SDS011;4746;35.664;139.738;2023-11-21T11:42:14;13.03;;;11.07;;
9413;SDS011;4746;35.664;139.738;2023-11-21T11:44:46;15.03;;;11.53;;
9413;SDS011;4746;35.664;139.738;2023-11-21T11:50:04;14.00;;;10.57;;
9413;SDS011;4746;35.664;139.738;2023-11-21T11:52:45;14.57;;;10.53;;
9413;SDS011;4746;35.664;139.738;2023-11-21T11:55:16;16.47;;;11.83;;
9413;SDS011;4746;35.664;139.738;2023-11-21T11:57:51;13.77;;;10.73;;
9413;SDS011;4746;35.664;139.738;2023-11-21T12:02:57;13.53;;;10.07;;
9413;SDS011;4746;35.664;139.738;2023-11-21T12:05:31;15.53;;;10.77;;
9413;SDS011;4746;35.664;139.738;2023-11-21T12:08:09;13.60;;;10.87;;
9413;SDS011;4746;35.664;139.738;2023-11-21T12:10:38;11.43;;;9.03;;
9413;SDS011;4746;35.664;139.738;2023-11-21T12:13:09;14.53;;;10.13;;
9413;SDS011;4746;35.664;139.738;2023-11-21T12:15:40;11.70;;;9.30;;
9413;SDS011;4746;35.664;139.738;2023-11-21T12:18:07;12.27;;;9.73;;
9413;SDS011;4746;35.664;139.738;2023-11-21T12:20:35;16.63;;;10.67;;
9413;SDS011;4746;35.664;139.738;2023-11-21T12:23:06;11.87;;;10.40;;
9413;SDS011;4746;35.664;139.738;2023-11-21T12:25:40;12.13;;;9.60;;
9413;SDS011;4746;35.664;139.738;2023-11-21T12:28:07;15.40;;;10.20;;
9413;SDS011;4746;35.664;139.738;2023-11-21T12:30:35;12.67;;;9.73;;
9413;SDS011;4746;35.664;139.738;2023-11-21T12:33:03;11.00;;;9.80;;
9413;SDS011;4746;35.664;139.738;2023-11-21T12:35:34;14.50;;;9.93;;
9413;SDS011;4746;35.664;139.738;2023-11-21T12:38:03;13.63;;;10.33;;
9413;SDS011;4746;35.664;139.738;2023-11-21T12:40:34;13.13;;;9.43;;
9413;SDS011;4746;35.664;139.738;2023-11-21T12:43:01;10.60;;;9.30;;
9413;SDS011;4746;35.664;139.738;2023-11-21T12:45:33;14.70;;;9.10;;
9413;SDS011;4746;35.664;139.738;2023-11-21T12:48:01;12.20;;;8.93;;
9413;SDS011;4746;35.664;139.738;2023-11-21T12:50:36;12.13;;;9.67;;
9413;SDS011;4746;35.664;139.738;2023-11-21T12:55:39;12.77;;;8.67;;
9413;SDS011;4746;35.664;139.738;2023-11-21T12:58:08;11.40;;;8.53;;
9413;SDS011;4746;35.664;139.738;2023-11-21T13:00:38;10.00;;;8.17;;
9413;SDS011;4746;35.664;139.738;2023-11-21T13:03:09;11.83;;;8.90;;
9413;SDS011;4746;35.664;139.738;2023-11-21T13:05:42;11.83;;;9.47;;
9413;SDS011;4746;35.664;139.738;2023-11-21T13:08:16;12.87;;;8.73;;
9413;SDS011;4746;35.664;139.738;2023-11-21T13:10:52;14.67;;;9.57;;
9413;SDS011;4746;35.664;139.738;2023-11-21T13:13:22;11.43;;;8.80;;
9413;SDS011;4746;35.664;139.738;2023-11-21T13:15:53;13.83;;;8.93;;
9413;SDS011;4746;35.664;139.738;2023-11-21T13:18:26;12.97;;;9.03;;
9413;SDS011;4746;35.664;139.738;2023-11-21T13:20:57;10.60;;;8.50;;
9413;SDS011;4746;35.664;139.738;2023-11-21T13:23:28;14.73;;;8.53;;
9413;SDS011;4746;35.664;139.738;2023-11-21T13:26:03;14.27;;;9.37;;
9413;SDS011;4746;35.664;139.738;2023-11-21T13:28:40;14.83;;;8.70;;
9413;SDS011;4746;35.664;139.738;2023-11-21T13:31:11;14.60;;;9.87;;
9413;SDS011;4746;35.664;139.738;2023-11-21T13:33:52;13.33;;;9.53;;
9413;SDS011;4746;35.664;139.738;2023-11-21T13:36:22;16.27;;;10.07;;
9413;SDS011;4746;35.664;139.738;2023-11-21T13:38:51;12.23;;;9.27;;
9413;SDS011;4746;35.664;139.738;2023-11-21T13:41:19;12.27;;;9.47;;
9413;SDS011;4746;35.664;139.738;2023-11-21T13:43:53;12.37;;;9.73;;
9413;SDS011;4746;35.664;139.738;2023-11-21T13:46:30;13.87;;;10.07;;
9413;SDS011;4746;35.664;139.738;2023-11-21T13:49:02;15.63;;;10.83;;
9413;SDS011;4746;35.664;139.738;2023-11-21T13:51:36;14.57;;;10.30;;
9413;SDS011;4746;35.664;139.738;2023-11-21T13:54:11;11.63;;;9.63;;
9413;SDS011;4746;35.664;139.738;2023-11-21T13:56:39;16.43;;;11.23;;
9413;SDS011;4746;35.664;139.738;2023-11-21T13:59:10;14.83;;;10.40;;
9413;SDS011;4746;35.664;139.738;2023-11-21T14:01:53;15.03;;;10.83;;
9413;SDS011;4746;35.664;139.738;2023-11-21T14:04:37;18.00;;;10.87;;
9413;SDS011;4746;35.664;139.738;2023-11-21T14:07:19;15.17;;;10.57;;
9413;SDS011;4746;35.664;139.738;2023-11-21T14:10:11;14.23;;;11.30;;
9413;SDS011;4746;35.664;139.738;2023-11-21T14:12:39;15.20;;;12.50;;
9413;SDS011;4746;35.664;139.738;2023-11-21T14:15:11;17.00;;;12.50;;
9413;SDS011;4746;35.664;139.738;2023-11-21T14:17:44;17.87;;;12.80;;
9413;SDS011;4746;35.664;139.738;2023-11-21T14:20:12;15.63;;;12.37;;
9413;SDS011;4746;35.664;139.738;2023-11-21T14:22:46;18.50;;;12.93;;
9413;SDS011;4746;35.664;139.738;2023-11-21T14:25:14;20.90;;;12.60;;
9413;SDS011;4746;35.664;139.738;2023-11-21T14:27:43;17.60;;;12.53;;
9413;SDS011;4746;35.664;139.738;2023-11-21T14:30:10;17.80;;;12.60;;
9413;SDS011;4746;35.664;139.738;2023-11-21T14:32:38;16.80;;;12.47;;
9413;SDS011;4746;35.664;139.738;2023-11-21T14:35:06;19.07;;;12.47;;
9413;SDS011;4746;35.664;139.738;2023-11-21T14:37:36;16.27;;;12.10;;
9413;SDS011;4746;35.664;139.738;2023-11-21T14:40:05;16.93;;;12.33;;
9413;SDS011;4746;35.664;139.738;2023-11-21T14:42:33;14.60;;;11.50;;
9413;SDS011;4746;35.664;139.738;2023-11-21T14:45:04;15.53;;;12.13;;
9413;SDS011;4746;35.664;139.738;2023-11-21T14:47:33;15.73;;;12.43;;
9413;SDS011;4746;35.664;139.738;2023-11-21T14:50:07;16.43;;;12.37;;
9413;SDS011;4746;35.664;139.738;2023-11-21T14:53:05;15.17;;;12.27;;
9413;SDS011;4746;35.664;139.738;2023-11-21T14:55:33;15.27;;;11.57;;
9413;SDS011;4746;35.664;139.738;2023-11-21T14:58:17;14.77;;;10.87;;
9413;SDS011;4746;35.664;139.738;2023-11-21T15:00:58;14.10;;;11.10;;
9413;SDS011;4746;35.664;139.738;2023-11-21T15:03:27;15.70;;;10.70;;
9413;SDS011;4746;35.664;139.738;2023-11-21T15:08:53;13.90;;;10.50;;
9413;SDS011;4746;35.664;139.738;2023-11-21T15:11:34;14.77;;;10.40;;
9413;SDS011;4746;35.664;139.738;2023-11-21T15:14:02;14.67;;;10.80;;
9413;SDS011;4746;35.664;139.738;2023-11-21T15:16:34;13.87;;;9.87;;
9413;SDS011;4746;35.664;139.738;2023-11-21T15:19:08;14.33;;;9.70;;